createdAt,value
2022-08-01T00:00:20.094Z,50.02
2022-08-01T00:02:52.972Z,50.02
2022-08-01T00:05:25.747Z,50.05
2022-08-01T00:07:58.626Z,50.28
2022-08-01T00:10:31.632Z,50.44
2022-08-01T00:13:04.814Z,50.67
2022-08-01T00:15:38.113Z,50.87
2022-08-01T00:18:10.928Z,51.00
2022-08-01T00:20:43.763Z,51.18
2022-08-01T00:23:16.713Z,51.18
2022-08-01T00:25:49.662Z,51.25
2022-08-01T00:28:22.370Z,51.31
2022-08-01T00:30:55.227Z,51.30
2022-08-01T00:33:28.168Z,51.34
2022-08-01T00:36:01.019Z,51.40
2022-08-01T00:38:34.228Z,51.51
2022-08-01T00:41:07.046Z,51.59
2022-08-01T00:43:39.995Z,51.66
2022-08-01T00:46:13.154Z,51.75
2022-08-01T00:48:45.782Z,51.84
2022-08-01T00:51:19.611Z,51.95
2022-08-01T00:53:54.000Z,52.04
2022-08-01T00:56:29.502Z,52.21
2022-08-01T00:59:04.398Z,52.34
2022-08-01T01:01:39.992Z,52.45
2022-08-01T01:04:12.145Z,52.54
2022-08-01T01:06:58.527Z,52.64
2022-08-01T01:09:44.917Z,52.70
2022-08-01T01:12:28.673Z,52.82
2022-08-01T01:15:25.894Z,52.91
2022-08-01T01:18:11.314Z,53.04
2022-08-01T01:21:08.165Z,53.21
2022-08-01T01:24:17.029Z,53.43
2022-08-01T01:27:03.644Z,53.59
2022-08-01T01:30:00.516Z,53.80
2022-08-01T01:32:42.128Z,53.91
2022-08-01T01:35:19.702Z,54.13
2022-08-01T01:37:56.320Z,54.38
2022-08-01T01:40:29.407Z,54.57
2022-08-01T01:43:02.477Z,54.79
2022-08-01T01:45:36.242Z,55.03
2022-08-01T01:48:12.043Z,55.23
2022-08-01T01:50:47.520Z,55.38
2022-08-01T01:53:22.815Z,55.53
2022-08-01T01:56:00.309Z,55.61
2022-08-01T01:58:36.263Z,55.70
2022-08-01T02:01:14.517Z,55.83
2022-08-01T02:03:46.276Z,55.85
2022-08-01T02:06:19.517Z,55.93
2022-08-01T02:08:56.355Z,56.06
2022-08-01T02:11:30.283Z,56.14
2022-08-01T02:14:05.183Z,56.26
2022-08-01T02:16:40.226Z,56.27
2022-08-01T02:19:13.149Z,56.35
2022-08-01T02:22:01.929Z,56.54
2022-08-01T02:24:47.523Z,56.71
2022-08-01T02:27:25.265Z,56.80
2022-08-01T02:30:06.349Z,57.00
2022-08-01T02:32:46.975Z,57.12
2022-08-01T02:35:32.229Z,57.29
2022-08-01T02:38:07.790Z,57.46
2022-08-01T02:40:44.156Z,57.43
2022-08-01T02:43:20.796Z,57.43
2022-08-01T02:45:58.261Z,57.45
2022-08-01T02:48:34.614Z,57.55
2022-08-01T02:51:08.139Z,57.60
2022-08-01T02:53:44.540Z,57.73
2022-08-01T02:56:17.663Z,57.86
2022-08-01T02:58:51.422Z,57.99
2022-08-01T03:01:27.827Z,58.14
2022-08-01T03:04:01.156Z,58.27
2022-08-01T03:06:35.911Z,58.43
2022-08-01T03:09:09.822Z,58.78
2022-08-01T03:11:44.715Z,59.07
2022-08-01T03:14:18.184Z,59.31
2022-08-01T03:16:52.542Z,59.71
2022-08-01T03:19:27.870Z,60.03
2022-08-01T03:22:01.721Z,60.25
2022-08-01T03:24:34.767Z,60.41
2022-08-01T03:27:09.629Z,60.59
2022-08-01T03:29:45.732Z,60.75
2022-08-01T03:32:19.889Z,60.81
2022-08-01T03:34:51.952Z,60.89
2022-08-01T03:37:31.791Z,60.94
2022-08-01T03:40:11.532Z,60.82
2022-08-01T03:42:50.564Z,60.94
2022-08-01T03:45:29.764Z,60.83
2022-08-01T03:48:05.324Z,60.80
2022-08-01T03:50:41.655Z,60.79
2022-08-01T03:53:15.660Z,60.76
2022-08-01T03:55:48.493Z,60.74
2022-08-01T03:58:21.413Z,60.65
2022-08-01T04:00:54.879Z,60.54
2022-08-01T04:03:28.090Z,60.67
2022-08-01T04:06:01.269Z,60.59
2022-08-01T04:08:39.872Z,60.98
2022-08-01T04:11:13.580Z,61.20
2022-08-01T04:13:46.657Z,61.29
2022-08-01T04:16:20.009Z,60.98
2022-08-01T04:18:53.056Z,60.82
2022-08-01T04:21:32.127Z,60.81
2022-08-01T04:24:18.729Z,60.86
2022-08-01T04:26:53.520Z,60.95
2022-08-01T04:29:27.414Z,61.18
2022-08-01T04:32:01.560Z,61.40
2022-08-01T04:34:35.310Z,61.33
2022-08-01T04:37:09.846Z,61.31
2022-08-01T04:39:50.177Z,61.42
2022-08-01T04:42:25.046Z,61.66
2022-08-01T04:44:54.339Z,61.71
2022-08-01T04:47:28.904Z,62.01
2022-08-01T04:50:03.043Z,62.21
2022-08-01T04:52:39.261Z,62.17
2022-08-01T04:55:13.567Z,62.43
2022-08-01T04:57:48.943Z,62.69
2022-08-01T05:00:21.911Z,62.30
2022-08-01T05:02:55.043Z,62.16
2022-08-01T05:05:27.798Z,62.15
2022-08-01T05:08:01.779Z,61.94
2022-08-01T05:10:37.172Z,61.41
2022-08-01T05:13:08.717Z,61.20
2022-08-01T05:15:42.373Z,61.29
2022-08-01T05:18:15.333Z,61.07
2022-08-01T05:20:48.599Z,61.08
2022-08-01T05:23:41.880Z,61.10
2022-08-01T05:25:57.679Z,60.84
2022-08-01T05:28:30.037Z,61.32
2022-08-01T05:31:02.963Z,60.99
2022-08-01T05:33:36.167Z,60.59
2022-08-01T05:36:09.205Z,60.48
2022-08-01T05:38:42.162Z,60.51
2022-08-01T05:41:15.217Z,60.18
2022-08-01T05:43:48.126Z,60.04
2022-08-01T05:46:20.893Z,60.34
2022-08-01T05:48:55.378Z,61.04
2022-08-01T05:51:28.784Z,61.07
2022-08-01T05:54:02.471Z,60.99
2022-08-01T05:56:36.783Z,61.24
2022-08-01T05:59:09.600Z,61.05
2022-08-01T06:01:42.785Z,61.31
2022-08-01T06:04:17.471Z,61.01
2022-08-01T06:06:50.381Z,60.79
2022-08-01T06:09:23.161Z,60.34
2022-08-01T06:11:55.896Z,59.77
2022-08-01T06:14:28.796Z,59.97
2022-08-01T06:17:01.625Z,59.36
2022-08-01T06:19:34.500Z,58.83
2022-08-01T06:22:07.533Z,59.09
2022-08-01T06:24:40.748Z,59.09
2022-08-01T06:27:21.606Z,58.78
2022-08-01T06:29:51.255Z,58.47
2022-08-01T06:32:28.056Z,58.63
2022-08-01T06:35:00.951Z,58.55
2022-08-01T06:37:34.853Z,58.43
2022-08-01T06:40:16.879Z,58.85
2022-08-01T06:42:48.486Z,57.90
2022-08-01T06:45:22.887Z,57.63
2022-08-01T06:47:56.184Z,57.51
2022-08-01T06:50:28.985Z,57.89
2022-08-01T06:53:02.213Z,56.67
2022-08-01T06:55:35.061Z,56.36
2022-08-01T06:58:07.923Z,56.65
2022-08-01T07:00:40.832Z,56.79
2022-08-01T07:03:13.578Z,56.90
2022-08-01T07:05:46.605Z,56.90
2022-08-01T07:08:19.491Z,56.95
2022-08-01T07:10:52.288Z,56.84
2022-08-01T07:13:36.778Z,56.85
2022-08-01T07:16:00.820Z,56.85
2022-08-01T07:18:33.888Z,56.36
2022-08-01T07:21:06.813Z,56.40
2022-08-01T07:23:45.830Z,56.30
2022-08-01T07:26:15.617Z,56.33
2022-08-01T07:28:48.651Z,56.04
2022-08-01T07:31:21.823Z,55.86
2022-08-01T07:33:54.710Z,55.01
2022-08-01T07:36:27.587Z,55.17
2022-08-01T07:39:00.380Z,54.73
2022-08-01T07:42:05.458Z,55.14
2022-08-01T07:44:08.507Z,54.71
2022-08-01T07:46:41.535Z,53.84
2022-08-01T07:49:14.873Z,53.90
2022-08-01T07:52:03.935Z,53.41
2022-08-01T07:54:24.298Z,53.48
2022-08-01T07:56:59.201Z,54.76
2022-08-01T07:59:32.064Z,55.42
2022-08-01T08:02:05.375Z,56.07
2022-08-01T08:04:38.463Z,56.71
2022-08-01T08:07:12.188Z,56.96
2022-08-01T08:09:45.250Z,57.26
2022-08-01T08:12:28.351Z,58.71
2022-08-01T08:14:54.582Z,59.48
2022-08-01T08:17:28.051Z,59.80
2022-08-01T08:20:00.425Z,59.63
2022-08-01T08:22:33.641Z,59.75
2022-08-01T08:25:07.773Z,59.79
2022-08-01T08:27:40.909Z,60.08
2022-08-01T08:30:14.161Z,61.15
2022-08-01T08:32:46.996Z,61.73
2022-08-01T08:35:23.274Z,61.82
2022-08-01T08:38:01.615Z,61.64
2022-08-01T08:40:36.565Z,61.36
2022-08-01T08:43:11.079Z,61.04
2022-08-01T08:45:59.702Z,60.25
2022-08-01T08:48:18.868Z,59.37
2022-08-01T08:50:53.576Z,59.35
2022-08-01T08:53:34.528Z,58.41
2022-08-01T08:56:02.990Z,58.78
2022-08-01T08:58:38.970Z,59.42
2022-08-01T09:01:11.808Z,59.15
2022-08-01T09:03:44.616Z,59.44
2022-08-01T09:06:17.737Z,59.28
2022-08-01T09:08:51.034Z,59.38
2022-08-01T09:11:23.843Z,60.39
2022-08-01T09:14:16.284Z,61.24
2022-08-01T09:16:49.257Z,61.90
2022-08-01T09:19:40.299Z,62.37
2022-08-01T09:22:04.982Z,62.29
2022-08-01T09:24:38.908Z,61.48
2022-08-01T09:27:25.104Z,61.21
2022-08-01T09:30:02.258Z,61.38
2022-08-01T09:32:36.837Z,61.76
2022-08-01T09:35:30.239Z,62.32
2022-08-01T09:38:23.441Z,62.64
2022-08-01T09:40:59.267Z,63.14
2022-08-01T09:43:33.502Z,63.80
2022-08-01T09:46:13.882Z,64.63
2022-08-01T09:49:07.421Z,65.54
2022-08-01T09:52:00.090Z,66.42
2022-08-01T09:54:15.923Z,67.18
2022-08-01T09:56:49.137Z,67.68
2022-08-01T09:59:26.385Z,67.70
2022-08-01T10:01:57.741Z,67.51
2022-08-01T10:04:30.715Z,68.00
2022-08-01T10:07:10.903Z,67.12
2022-08-01T10:09:46.144Z,66.21
2022-08-01T10:12:20.218Z,65.43
2022-08-01T10:14:56.863Z,65.16
2022-08-01T10:17:51.044Z,64.83
2022-08-01T10:20:06.064Z,65.31
2022-08-01T10:22:41.777Z,65.04
2022-08-01T10:25:16.281Z,64.77
2022-08-01T10:27:58.670Z,63.88
2022-08-01T10:30:31.995Z,62.36
2022-08-01T10:33:05.148Z,61.42
2022-08-01T10:35:46.711Z,60.86
2022-08-01T10:38:18.353Z,58.98
2022-08-01T10:40:53.061Z,57.92
2022-08-01T10:43:26.300Z,56.34
2022-08-01T10:45:59.562Z,55.64
2022-08-01T10:48:35.827Z,55.39
2022-08-01T10:51:17.536Z,54.78
2022-08-01T10:53:50.771Z,52.89
2022-08-01T10:56:26.957Z,52.10
2022-08-01T10:59:11.719Z,50.60
2022-08-01T11:01:44.862Z,49.82
2022-08-01T11:04:18.081Z,48.96
2022-08-01T11:07:07.381Z,49.07
2022-08-01T11:09:52.107Z,48.52
2022-08-01T11:12:26.310Z,48.03
2022-08-01T11:15:11.060Z,47.45
2022-08-01T11:17:54.679Z,47.70
2022-08-01T11:20:34.061Z,47.87
2022-08-01T11:23:13.998Z,46.97
2022-08-01T11:26:05.422Z,46.72
2022-08-01T11:28:34.946Z,46.54
2022-08-01T11:31:14.070Z,46.42
2022-08-01T11:33:51.818Z,46.54
2022-08-01T11:36:55.849Z,46.83
2022-08-01T11:39:13.636Z,46.20
2022-08-01T11:41:45.259Z,46.39
2022-08-01T11:44:26.111Z,46.25
2022-08-01T11:47:11.550Z,45.69
2022-08-01T11:49:52.424Z,45.50
2022-08-01T11:52:34.571Z,45.52
2022-08-01T11:55:12.003Z,45.19
2022-08-01T11:57:48.551Z,45.16
2022-08-01T12:00:23.880Z,45.09
2022-08-01T12:03:10.118Z,45.07
2022-08-01T12:05:46.178Z,45.03
2022-08-01T12:08:29.777Z,45.19
2022-08-01T12:11:03.697Z,44.79
2022-08-01T12:13:45.969Z,44.00
2022-08-01T12:16:18.755Z,44.50
2022-08-01T12:18:53.882Z,44.78
2022-08-01T12:21:26.277Z,44.11
2022-08-01T12:24:05.147Z,44.11
2022-08-01T12:26:45.048Z,44.06
2022-08-01T12:29:37.861Z,43.77
2022-08-01T12:32:32.789Z,44.18
2022-08-01T12:35:18.428Z,42.67
2022-08-01T12:37:54.376Z,43.38
2022-08-01T12:40:31.331Z,43.66
2022-08-01T12:43:09.726Z,43.92
2022-08-01T12:45:56.347Z,43.91
2022-08-01T12:48:21.839Z,44.10
2022-08-01T12:50:55.420Z,43.09
2022-08-01T12:53:40.147Z,42.46
2022-08-01T12:56:03.254Z,42.01
2022-08-01T12:58:37.337Z,41.63
2022-08-01T13:01:14.520Z,41.42
2022-08-01T13:04:07.900Z,41.42
2022-08-01T13:06:40.975Z,41.42
2022-08-01T13:09:14.909Z,42.11
2022-08-01T13:12:03.028Z,42.00
2022-08-01T13:14:32.363Z,42.26
2022-08-01T13:17:05.318Z,41.64
2022-08-01T13:19:50.558Z,42.00
2022-08-01T13:22:23.489Z,42.30
2022-08-01T13:25:01.031Z,42.73
2022-08-01T13:27:34.077Z,43.66
2022-08-01T13:30:23.088Z,43.30
2022-08-01T13:33:02.856Z,43.00
2022-08-01T13:35:36.061Z,43.51
2022-08-01T13:38:08.929Z,44.63
2022-08-01T13:40:41.768Z,45.63
2022-08-01T13:43:14.938Z,46.79
2022-08-01T13:45:47.895Z,47.51
2022-08-01T13:48:21.230Z,47.76
2022-08-01T13:51:13.540Z,46.23
2022-08-01T13:53:30.653Z,45.68
2022-08-01T13:56:03.503Z,44.03
2022-08-01T13:58:36.611Z,43.22
2022-08-01T14:01:10.166Z,45.14
2022-08-01T14:03:43.010Z,47.36
2022-08-01T14:06:17.537Z,47.97
2022-08-01T14:08:51.432Z,47.80
2022-08-01T14:11:24.732Z,46.89
2022-08-01T14:13:57.717Z,46.57
2022-08-01T14:16:30.561Z,46.63
2022-08-01T14:19:03.934Z,46.36
2022-08-01T14:21:37.090Z,46.96
2022-08-01T14:24:10.967Z,47.67
2022-08-01T14:26:44.033Z,48.11
2022-08-01T14:29:16.921Z,48.27
2022-08-01T14:31:49.779Z,48.36
2022-08-01T14:34:24.053Z,48.79
2022-08-01T14:36:57.003Z,48.43
2022-08-01T14:39:30.683Z,48.21
2022-08-01T14:42:03.730Z,48.67
2022-08-01T14:44:44.960Z,49.01
2022-08-01T14:47:16.236Z,48.93
2022-08-01T14:49:48.801Z,47.54
2022-08-01T14:52:21.615Z,47.34
2022-08-01T14:54:54.492Z,47.42
2022-08-01T14:57:27.607Z,48.31
2022-08-01T15:00:00.881Z,49.17
2022-08-01T15:02:34.177Z,49.14
2022-08-01T15:05:08.472Z,49.48
2022-08-01T15:07:51.536Z,49.54
2022-08-01T15:10:17.329Z,48.90
2022-08-01T15:12:50.851Z,48.49
2022-08-01T15:15:22.983Z,48.51
2022-08-01T15:17:55.730Z,48.14
2022-08-01T15:20:28.600Z,48.09
2022-08-01T15:23:01.643Z,48.58
2022-08-01T15:25:41.878Z,48.86
2022-08-01T15:28:09.735Z,48.97
2022-08-01T15:30:42.792Z,49.10
2022-08-01T15:33:15.557Z,49.04
2022-08-01T15:35:48.486Z,48.75
2022-08-01T15:38:23.047Z,48.70
2022-08-01T15:40:55.766Z,48.67
2022-08-01T15:43:28.710Z,48.44
2022-08-01T15:46:02.840Z,48.55
2022-08-01T15:48:39.990Z,48.51
2022-08-01T15:51:10.610Z,48.57
2022-08-01T15:53:43.786Z,48.83
2022-08-01T15:56:16.924Z,49.18
2022-08-01T15:58:50.039Z,49.38
2022-08-01T16:01:22.919Z,49.53
2022-08-01T16:03:57.627Z,49.95
2022-08-01T16:06:30.889Z,50.31
2022-08-01T16:09:04.295Z,50.38
2022-08-01T16:11:43.109Z,50.39
2022-08-01T16:14:13.255Z,50.51
2022-08-01T16:16:46.065Z,50.61
2022-08-01T16:19:20.761Z,50.73
2022-08-01T16:21:53.707Z,51.16
2022-08-01T16:24:28.211Z,51.58
2022-08-01T16:27:01.057Z,51.75
2022-08-01T16:29:35.768Z,51.97
2022-08-01T16:32:24.566Z,52.31
2022-08-01T16:34:46.965Z,52.65
2022-08-01T16:37:18.799Z,52.97
2022-08-01T16:39:51.627Z,53.33
2022-08-01T16:42:27.589Z,53.51
2022-08-01T16:44:59.900Z,53.81
2022-08-01T16:47:32.931Z,54.05
2022-08-01T16:50:06.834Z,54.23
2022-08-01T16:52:42.131Z,54.38
2022-08-01T16:55:14.955Z,54.54
2022-08-01T16:57:47.896Z,54.74
2022-08-01T17:00:22.792Z,55.36
2022-08-01T17:02:55.782Z,55.54
2022-08-01T17:05:29.624Z,55.66
2022-08-01T17:08:02.868Z,55.83
2022-08-01T17:10:36.746Z,55.98
2022-08-01T17:13:08.913Z,56.04
2022-08-01T17:15:43.109Z,56.19
2022-08-01T17:18:16.095Z,56.37
2022-08-01T17:20:50.568Z,56.74
2022-08-01T17:23:22.499Z,57.43
2022-08-01T17:25:55.902Z,58.32
2022-08-01T17:28:28.839Z,59.43
2022-08-01T17:31:01.993Z,60.27
2022-08-01T17:33:45.885Z,61.31
2022-08-01T17:36:10.134Z,61.76
2022-08-01T17:38:43.243Z,62.09
2022-08-01T17:41:16.140Z,62.40
2022-08-01T17:43:49.194Z,62.47
2022-08-01T17:46:22.031Z,62.45
2022-08-01T17:48:55.174Z,62.50
2022-08-01T17:51:27.921Z,62.45
2022-08-01T17:54:00.757Z,62.83
2022-08-01T17:56:38.582Z,63.15
2022-08-01T17:59:08.670Z,63.62
2022-08-01T18:01:45.184Z,63.95
2022-08-01T18:04:16.071Z,64.37
2022-08-01T18:06:58.911Z,64.87
2022-08-01T18:09:23.965Z,66.23
2022-08-01T18:11:56.708Z,67.54
2022-08-01T18:14:40.264Z,68.13
2022-08-01T18:17:04.899Z,68.71
2022-08-01T18:19:39.504Z,69.15
2022-08-01T18:22:28.949Z,69.62
2022-08-01T18:24:47.532Z,69.82
2022-08-01T18:27:20.379Z,70.11
2022-08-01T18:29:53.091Z,70.39
2022-08-01T18:32:26.013Z,70.54
2022-08-01T18:34:59.559Z,70.66
2022-08-01T18:37:33.282Z,70.65
2022-08-01T18:40:08.420Z,70.70
2022-08-01T18:42:41.886Z,70.68
2022-08-01T18:45:15.159Z,70.60
2022-08-01T18:47:48.678Z,70.46
2022-08-01T18:50:21.489Z,70.61
2022-08-01T18:52:56.374Z,70.76
2022-08-01T18:55:29.203Z,70.84
2022-08-01T18:58:02.067Z,70.97
2022-08-01T19:00:34.993Z,71.06
2022-08-01T19:03:08.039Z,71.48
2022-08-01T19:05:41.297Z,72.05
2022-08-01T19:08:14.296Z,72.63
2022-08-01T19:10:47.218Z,73.16
2022-08-01T19:13:20.977Z,73.33
2022-08-01T19:15:53.829Z,73.34
2022-08-01T19:18:27.819Z,73.78
2022-08-01T19:21:02.573Z,74.19
2022-08-01T19:23:54.453Z,74.21
2022-08-01T19:26:28.463Z,74.39
2022-08-01T19:29:13.048Z,75.08
2022-08-01T19:31:49.051Z,76.36
2022-08-01T19:34:26.699Z,77.50
2022-08-01T19:37:00.117Z,78.04
2022-08-01T19:39:33.134Z,78.01
2022-08-01T19:42:06.144Z,78.27
2022-08-01T19:44:40.048Z,78.60
2022-08-01T19:47:14.422Z,78.77
2022-08-01T19:49:47.787Z,78.51
2022-08-01T19:52:23.970Z,78.52
2022-08-01T19:54:58.230Z,78.83
2022-08-01T19:57:38.784Z,79.36
2022-08-01T20:00:05.016Z,80.56
2022-08-01T20:02:39.466Z,81.92
2022-08-01T20:05:13.100Z,82.71
2022-08-01T20:07:47.244Z,83.54
2022-08-01T20:10:24.610Z,84.15
2022-08-01T20:12:59.130Z,84.81
2022-08-01T20:15:32.086Z,84.71
2022-08-01T20:18:05.086Z,84.89
2022-08-01T20:20:39.400Z,85.36
2022-08-01T20:23:18.627Z,86.08
2022-08-01T20:25:49.800Z,86.68
2022-08-01T20:28:29.131Z,87.01
2022-08-01T20:31:05.825Z,88.04
2022-08-01T20:33:45.367Z,88.77
2022-08-01T20:36:25.867Z,88.68
2022-08-01T20:38:58.299Z,89.22
2022-08-01T20:41:31.442Z,89.69
2022-08-01T20:44:05.886Z,90.49
2022-08-01T20:46:40.412Z,91.53
2022-08-01T20:49:14.610Z,91.98
2022-08-01T20:51:48.267Z,92.74
2022-08-01T20:54:21.783Z,92.70
2022-08-01T20:57:05.040Z,92.72
2022-08-01T20:59:55.515Z,92.44
2022-08-01T21:02:58.955Z,92.62
2022-08-01T21:05:35.703Z,91.87
2022-08-01T21:08:27.306Z,92.14
2022-08-01T21:11:01.033Z,91.91
2022-08-01T21:13:49.406Z,91.44
2022-08-01T21:16:30.477Z,90.95
2022-08-01T21:19:21.654Z,90.67
2022-08-01T21:21:53.147Z,90.48
2022-08-01T21:24:30.123Z,90.13
2022-08-01T21:27:03.680Z,89.69
2022-08-01T21:29:37.033Z,89.49
2022-08-01T21:32:13.166Z,89.90
2022-08-01T21:34:48.676Z,90.26
2022-08-01T21:37:21.613Z,90.51
2022-08-01T21:39:54.851Z,90.65
2022-08-01T21:42:29.815Z,90.88
2022-08-01T21:45:04.936Z,91.05
2022-08-01T21:47:39.339Z,91.38
2022-08-01T21:50:12.098Z,91.21
2022-08-01T21:52:50.468Z,91.17
2022-08-01T21:55:36.061Z,91.05
2022-08-01T21:58:16.745Z,90.63
2022-08-01T22:00:54.417Z,90.14
2022-08-01T22:03:31.744Z,89.79
2022-08-01T22:06:06.097Z,89.53
2022-08-01T22:08:54.717Z,89.05
2022-08-01T22:11:31.501Z,88.42
2022-08-01T22:14:08.255Z,87.51
2022-08-01T22:16:41.836Z,86.47
2022-08-01T22:19:43.039Z,85.76
2022-08-01T22:21:49.813Z,85.36
2022-08-01T22:24:23.682Z,85.20
2022-08-01T22:26:57.591Z,85.13
2022-08-01T22:29:30.726Z,85.09
2022-08-01T22:32:04.055Z,85.33
2022-08-01T22:34:36.789Z,85.58
2022-08-01T22:37:14.821Z,85.77
2022-08-01T22:39:47.808Z,85.75
2022-08-01T22:42:28.163Z,86.04
2022-08-01T22:45:08.215Z,86.52
2022-08-01T22:48:06.865Z,86.73
2022-08-01T22:50:43.704Z,86.55
2022-08-01T22:53:58.123Z,86.42
2022-08-01T22:56:33.626Z,86.07
2022-08-01T22:59:11.072Z,85.57
2022-08-01T23:01:50.860Z,85.05
2022-08-01T23:04:33.397Z,84.45
2022-08-01T23:07:06.676Z,84.36
2022-08-01T23:09:54.361Z,84.19
2022-08-01T23:12:15.291Z,83.78
2022-08-01T23:14:48.483Z,83.50
2022-08-01T23:17:27.332Z,83.16
2022-08-01T23:19:58.436Z,83.11
2022-08-01T23:22:36.795Z,82.95
2022-08-01T23:25:15.538Z,82.64
2022-08-01T23:27:51.884Z,82.79
2022-08-01T23:30:33.861Z,82.85
2022-08-01T23:33:06.792Z,82.65
2022-08-01T23:35:39.762Z,82.48
2022-08-01T23:38:14.219Z,82.35
2022-08-01T23:40:47.159Z,82.12
2022-08-01T23:43:19.929Z,81.90
2022-08-01T23:46:03.265Z,81.91
2022-08-01T23:48:27.501Z,81.93
2022-08-01T23:51:00.389Z,81.90
2022-08-01T23:53:35.941Z,81.76
2022-08-01T23:56:08.860Z,81.80
2022-08-01T23:58:41.615Z,82.03
